Time;durP1;ratioP1;P1;durP2;ratioP2;P2;SDS_P1;SDS_P2;PMS_P1;PMS_P2;Temp;Humidity;BMP_temperature;BMP_pressure;BME280_temperature;BME280_humidity;BME280_pressure;Samples;Min_cycle;Max_cycle;Signal;HPM_P1;HPM_P2
2023/03/07 00:01:41;;;;;;;;;;;;;;;20.73;46.75;99562.47;4956887;28;4263;-64
2023/03/07 00:04:08;;;;;;;;;;;;;;;20.73;46.63;99559.59;4958896;28;5284;-65
2023/03/07 00:06:34;;;;;;;;;;;;;;;20.73;46.77;99553.06;4955399;28;4168;-65
2023/03/07 00:09:01;;;;;;;;;;;;;;;20.73;47.07;99542.31;4957829;28;4212;-64
2023/03/07 00:11:27;;;;;;;;;;;;;;;20.72;46.99;99535.09;4958355;28;5185;-65
2023/03/07 00:13:54;;;;;;;;;;;;;;;20.71;46.93;99539.41;4958852;28;4172;-65
2023/03/07 00:16:21;;;;;;;;;;;;;;;20.69;46.83;99542.94;4960867;28;4116;-65
2023/03/07 00:18:47;;;;;;;;;;;;;;;20.68;46.81;99529.25;4944082;28;4153;-64
2023/03/07 00:21:14;;;;;;;;;;;;;;;20.67;46.78;99534.25;4956442;28;4149;-64
2023/03/07 00:23:41;;;;;;;;;;;;;;;20.67;46.66;99525.63;4956988;28;4327;-64
2023/03/07 00:26:10;;;;;;;;;;;;;;;20.67;46.73;99516.28;4955752;28;4161;-64
2023/03/07 00:28:37;;;;;;;;;;;;;;;20.67;46.76;99522.03;4926805;28;5806;-65
2023/03/07 00:31:04;;;;;;;;;;;;;;;20.68;46.68;99517.72;4956163;28;4181;-64
2023/03/07 00:33:30;;;;;;;;;;;;;;;20.67;47.04;99510.53;4955064;28;4237;-64
2023/03/07 00:36:01;;;;;;;;;;;;;;;20.69;46.81;99496.19;4940258;28;4150;-64
2023/03/07 00:38:28;;;;;;;;;;;;;;;20.67;46.92;99482.50;4950149;28;4345;-64
2023/03/07 00:41:01;;;;;;;;;;;;;;;20.67;46.96;99482.50;4955309;28;4101;-64
2023/03/07 00:43:27;;;;;;;;;;;;;;;20.69;46.86;99484.69;4948933;28;4143;-64
2023/03/07 00:45:54;;;;;;;;;;;;;;;20.67;47.05;99470.25;4950122;28;4272;-64
2023/03/07 00:48:20;;;;;;;;;;;;;;;20.65;47.10;99468.06;4947749;28;4238;-64
2023/03/07 00:50:48;;;;;;;;;;;;;;;20.64;46.77;99469.50;4952489;28;4193;-64
2023/03/07 00:53:15;;;;;;;;;;;;;;;20.64;46.66;99460.13;4939284;28;4064;-64
2023/03/07 00:55:42;;;;;;;;;;;;;;;20.63;46.72;99450.03;4956176;28;5302;-64
2023/03/07 00:58:08;;;;;;;;;;;;;;;20.63;46.91;99444.28;4953355;28;4363;-65
2023/03/07 01:00:34;;;;;;;;;;;;;;;20.63;46.87;99452.91;4949230;28;4294;-65
2023/03/07 01:03:02;;;;;;;;;;;;;;;20.61;46.74;99439.22;4950820;28;4039;-64
2023/03/07 01:05:29;;;;;;;;;;;;;;;20.62;46.91;99432.06;4957163;28;4345;-64
2023/03/07 01:07:56;;;;;;;;;;;;;;;20.64;46.91;99437.13;4952007;28;4170;-64
2023/03/07 01:10:22;;;;;;;;;;;;;;;20.64;46.77;99434.25;4951762;28;4309;-64
2023/03/07 01:12:48;;;;;;;;;;;;;;;20.64;46.91;99422.75;4956438;28;5228;-64
2023/03/07 01:15:15;;;;;;;;;;;;;;;20.63;47.05;99416.25;4953769;28;4191;-65
2023/03/07 01:17:41;;;;;;;;;;;;;;;20.64;46.92;99417.00;4956410;28;5190;-64
2023/03/07 01:20:08;;;;;;;;;;;;;;;20.64;47.06;99408.38;4941614;28;4019;-64
2023/03/07 01:22:34;;;;;;;;;;;;;;;20.63;47.08;99401.16;4959186;28;4221;-64
2023/03/07 01:25:01;;;;;;;;;;;;;;;20.62;46.98;99391.06;4948981;28;4229;-64
2023/03/07 01:27:27;;;;;;;;;;;;;;;20.61;46.92;99390.31;4958852;28;4195;-64
2023/03/07 01:29:53;;;;;;;;;;;;;;;20.60;46.95;99385.28;4949291;28;5437;-64
2023/03/07 01:32:20;;;;;;;;;;;;;;;20.59;46.95;99373.03;4949204;28;4159;-64
2023/03/07 01:34:46;;;;;;;;;;;;;;;20.59;46.80;99366.53;4957795;28;5101;-64
2023/03/07 01:37:13;;;;;;;;;;;;;;;20.59;46.98;99355.03;4959264;28;4220;-64
2023/03/07 01:39:39;;;;;;;;;;;;;;;20.57;46.96;99352.13;4960647;28;4179;-64
2023/03/07 01:42:08;;;;;;;;;;;;;;;20.58;46.83;99348.56;4949870;28;4252;-64
2023/03/07 01:44:53;;;;;;;;;;;;;;;20.60;47.03;99345.00;4953396;28;4124;-64
2023/03/07 01:47:19;;;;;;;;;;;;;;;20.60;47.26;99339.25;4947498;28;5548;-64
2023/03/07 01:49:50;;;;;;;;;;;;;;;20.59;47.25;99332.78;4949054;28;4144;-64
2023/03/07 01:52:17;;;;;;;;;;;;;;;20.60;47.07;99322.00;4938044;28;4265;-64
2023/03/07 01:54:49;;;;;;;;;;;;;;;20.60;47.16;99322.00;4928087;28;5235;-64
2023/03/07 01:57:18;;;;;;;;;;;;;;;20.59;47.07;99314.78;4963419;28;4339;-64
2023/03/07 01:59:45;;;;;;;;;;;;;;;20.59;46.95;99306.16;4962872;28;5232;-64
2023/03/07 02:02:13;;;;;;;;;;;;;;;20.58;46.87;99305.44;4932488;28;4290;-64
2023/03/07 02:04:58;;;;;;;;;;;;;;;20.56;46.89;99298.88;4955660;28;4251;-64
2023/03/07 02:07:26;;;;;;;;;;;;;;;20.56;47.02;99291.00;4957002;28;5156;-64
2023/03/07 02:09:52;;;;;;;;;;;;;;;20.54;46.87;99284.47;4940850;28;4237;-64
2023/03/07 02:12:19;;;;;;;;;;;;;;;20.55;46.73;99280.16;4933901;28;5255;-64
2023/03/07 02:14:48;;;;;;;;;;;;;;;20.54;46.97;99272.97;4956962;28;4200;-64
2023/03/07 02:17:15;;;;;;;;;;;;;;;20.55;46.63;99262.91;4945385;28;4218;-64
2023/03/07 02:19:47;;;;;;;;;;;;;;;20.54;47.08;99255.69;4925623;28;5340;-64
2023/03/07 02:22:15;;;;;;;;;;;;;;;20.55;47.03;99246.41;4945285;28;4760;-64
2023/03/07 02:24:59;;;;;;;;;;;;;;;20.56;46.96;99247.13;4954065;28;4198;-64
2023/03/07 02:27:28;;;;;;;;;;;;;;;20.58;46.98;99244.31;4925660;28;5432;-64
2023/03/07 02:29:54;;;;;;;;;;;;;;;20.57;46.90;99234.22;4918282;28;4138;-64
2023/03/07 02:32:21;;;;;;;;;;;;;;;20.56;47.12;99233.50;4943827;28;4131;-64
2023/03/07 02:34:47;;;;;;;;;;;;;;;20.55;47.01;99222.66;4944713;28;4177;-64
2023/03/07 02:37:19;;;;;;;;;;;;;;;20.56;46.97;99218.38;4938080;28;5307;-63
2023/03/07 02:39:46;;;;;;;;;;;;;;;20.54;46.85;99210.41;4952898;28;4755;-64
2023/03/07 02:42:15;;;;;;;;;;;;;;;20.53;46.97;99208.25;4944376;28;5402;-64
2023/03/07 02:44:53;;;;;;;;;;;;;;;20.51;47.02;99198.16;4932614;28;4151;-64
2023/03/07 02:47:19;;;;;;;;;;;;;;;20.51;46.93;99189.53;4950262;28;4100;-64
2023/03/07 02:49:46;;;;;;;;;;;;;;;20.53;46.91;99185.25;4949940;28;4543;-64
2023/03/07 02:52:12;;;;;;;;;;;;;;;20.53;46.65;99182.38;4935039;28;4012;-64
2023/03/07 02:54:39;;;;;;;;;;;;;;;20.53;46.88;99173.75;4937253;28;4158;-64
2023/03/07 02:57:06;;;;;;;;;;;;;;;20.54;46.85;99163.69;4947507;28;4226;-64
2023/03/07 02:59:32;;;;;;;;;;;;;;;20.54;46.95;99157.94;4945223;28;5454;-64
2023/03/07 03:01:58;;;;;;;;;;;;;;;20.55;46.83;99147.88;4949670;28;5327;-64
2023/03/07 03:04:25;;;;;;;;;;;;;;;20.55;46.90;99150.75;4946184;28;5440;-64
2023/03/07 03:06:51;;;;;;;;;;;;;;;20.54;46.89;99143.56;4953087;28;5171;-64
2023/03/07 03:09:18;;;;;;;;;;;;;;;20.53;46.96;99145.72;4947170;28;4353;-64
2023/03/07 03:11:44;;;;;;;;;;;;;;;20.53;46.94;99128.47;4958340;28;4919;-64
2023/03/07 03:14:11;;;;;;;;;;;;;;;20.50;46.92;99130.59;4940520;28;4096;-64
2023/03/07 03:16:38;;;;;;;;;;;;;;;20.51;46.94;99117.66;4948553;28;4038;-64
2023/03/07 03:19:05;;;;;;;;;;;;;;;20.49;46.84;99116.88;4944094;28;4573;-64
2023/03/07 03:21:31;;;;;;;;;;;;;;;20.48;46.78;99113.28;4957073;28;5413;-65
2023/03/07 03:24:02;;;;;;;;;;;;;;;20.49;46.78;99111.13;4943473;28;4223;-64
2023/03/07 03:26:29;;;;;;;;;;;;;;;20.47;46.76;99091.69;4951949;28;4194;-63
2023/03/07 03:28:55;;;;;;;;;;;;;;;20.47;46.89;99085.22;4958114;28;4145;-64
2023/03/07 03:31:22;;;;;;;;;;;;;;;20.47;46.72;99088.81;4957979;28;4150;-64
2023/03/07 03:33:51;;;;;;;;;;;;;;;20.48;46.91;99075.91;4938997;28;4292;-64
2023/03/07 03:36:17;;;;;;;;;;;;;;;20.48;46.95;99075.19;4954324;28;3964;-64
2023/03/07 03:38:47;;;;;;;;;;;;;;;20.48;46.86;99070.16;4961495;28;5252;-64
2023/03/07 03:41:16;;;;;;;;;;;;;;;20.50;47.05;99061.59;4938064;28;4225;-63
2023/03/07 03:43:45;;;;;;;;;;;;;;;20.50;46.81;99070.22;4961691;28;4193;-64
2023/03/07 03:46:12;;;;;;;;;;;;;;;20.50;47.00;99058.72;4940367;28;5461;-64
2023/03/07 03:48:39;;;;;;;;;;;;;;;20.50;47.05;99044.31;4964064;28;4137;-64
2023/03/07 03:51:07;;;;;;;;;;;;;;;20.51;46.93;99051.53;4957994;28;4064;-64
2023/03/07 03:53:33;;;;;;;;;;;;;;;20.53;47.04;99041.50;4955854;28;4134;-64
2023/03/07 03:56:07;;;;;;;;;;;;;;;20.53;46.99;99032.88;4955494;28;4211;-64
2023/03/07 03:58:33;;;;;;;;;;;;;;;20.54;47.09;99037.19;4957675;28;4211;-64
2023/03/07 04:01:04;;;;;;;;;;;;;;;20.54;47.13;99025.69;4939937;28;4215;-64
2023/03/07 04:03:35;;;;;;;;;;;;;;;20.51;47.00;99019.91;4963333;28;5626;-64
2023/03/07 04:06:02;;;;;;;;;;;;;;;20.51;47.02;99017.03;4956756;28;4146;-64
2023/03/07 04:08:28;;;;;;;;;;;;;;;20.52;47.02;99009.13;4959372;28;4177;-64
2023/03/07 04:10:54;;;;;;;;;;;;;;;20.50;47.03;99012.72;4938887;28;4203;-64
2023/03/07 04:13:21;;;;;;;;;;;;;;;20.49;46.96;99005.47;4955786;28;4414;-65
2023/03/07 04:15:48;;;;;;;;;;;;;;;20.50;46.93;99006.22;4962294;28;4173;-64
2023/03/07 04:18:15;;;;;;;;;;;;;;;20.49;46.89;99008.34;4937616;28;4622;-64
2023/03/07 04:20:42;;;;;;;;;;;;;;;20.49;46.94;99002.63;4939663;28;4149;-63
2023/03/07 04:23:08;;;;;;;;;;;;;;;20.49;46.98;98996.88;4939645;28;4209;-64
2023/03/07 04:25:35;;;;;;;;;;;;;;;20.49;46.86;98999.75;4945825;28;4336;-64
2023/03/07 04:28:01;;;;;;;;;;;;;;;20.48;46.91;98989.66;4937812;28;6331;-64
2023/03/07 04:30:28;;;;;;;;;;;;;;;20.48;46.80;98989.66;4934726;28;4052;-64
2023/03/07 04:32:54;;;;;;;;;;;;;;;20.48;46.96;98983.19;4952431;28;4158;-64
2023/03/07 04:35:21;;;;;;;;;;;;;;;20.47;46.89;98982.44;4938455;28;4206;-64
2023/03/07 04:37:49;;;;;;;;;;;;;;;20.46;46.90;98969.50;4955751;28;4118;-64
2023/03/07 04:40:15;;;;;;;;;;;;;;;20.47;46.76;98965.19;4957790;28;5246;-64
2023/03/07 04:42:42;;;;;;;;;;;;;;;20.48;46.92;98960.91;4953181;28;5170;-64
2023/03/07 04:45:09;;;;;;;;;;;;;;;20.47;46.81;98959.44;4937368;28;4123;-64
2023/03/07 04:47:36;;;;;;;;;;;;;;;20.48;47.04;98949.41;4953049;28;5733;-64
2023/03/07 04:50:02;;;;;;;;;;;;;;;20.49;46.98;98958.75;4950057;28;4175;-63
2023/03/07 04:52:30;;;;;;;;;;;;;;;20.49;47.04;98945.09;4934982;28;5337;-64
2023/03/07 04:54:57;;;;;;;;;;;;;;;20.49;47.04;98950.88;4934120;28;5452;-64
2023/03/07 04:57:24;;;;;;;;;;;;;;;20.50;46.94;98940.81;4944331;28;5390;-65
2023/03/07 04:59:51;;;;;;;;;;;;;;;20.51;47.09;98941.56;4937684;28;5260;-64
2023/03/07 05:02:19;;;;;;;;;;;;;;;20.52;47.00;98928.63;4935108;28;4050;-64
2023/03/07 05:04:46;;;;;;;;;;;;;;;20.51;47.10;98942.28;4940365;28;4153;-64
2023/03/07 05:07:13;;;;;;;;;;;;;;;20.51;46.99;98936.53;4932062;28;4179;-64
2023/03/07 05:09:39;;;;;;;;;;;;;;;20.51;47.01;98921.44;4943657;28;4120;-64
2023/03/07 05:12:06;;;;;;;;;;;;;;;20.50;46.80;98917.81;4943320;28;4027;-63
2023/03/07 05:14:34;;;;;;;;;;;;;;;20.49;46.88;98916.38;4936370;28;4172;-64
2023/03/07 05:17:00;;;;;;;;;;;;;;;20.49;46.70;98916.38;4943051;28;4294;-64
2023/03/07 05:19:27;;;;;;;;;;;;;;;20.48;46.82;98909.19;4953366;28;4231;-64
2023/03/07 05:21:53;;;;;;;;;;;;;;;20.49;46.81;98904.16;4952636;28;3987;-64
2023/03/07 05:24:20;;;;;;;;;;;;;;;20.47;46.99;98901.97;4947180;28;4222;-64
2023/03/07 05:26:47;;;;;;;;;;;;;;;20.48;46.92;98914.91;4957028;28;5224;-64
2023/03/07 05:29:13;;;;;;;;;;;;;;;20.48;46.73;98899.81;4952039;28;4495;-63
2023/03/07 05:31:39;;;;;;;;;;;;;;;20.48;46.69;98903.44;4934596;28;4171;-64
2023/03/07 05:34:09;;;;;;;;;;;;;;;20.47;46.75;98901.97;4942496;28;4255;-64
2023/03/07 05:36:36;;;;;;;;;;;;;;;20.47;46.78;98907.72;4932139;28;5585;-64
2023/03/07 05:39:03;;;;;;;;;;;;;;;20.45;46.67;98904.78;4933146;28;4249;-64
2023/03/07 05:41:30;;;;;;;;;;;;;;;20.45;46.53;98909.81;4953286;28;5210;-63
2023/03/07 05:43:57;;;;;;;;;;;;;;;20.46;46.52;98905.53;4951823;28;5232;-63
2023/03/07 05:46:24;;;;;;;;;;;;;;;20.46;46.70;98906.25;4943484;28;4073;-63
2023/03/07 05:48:50;;;;;;;;;;;;;;;20.46;46.81;98903.38;4947362;28;5267;-63
2023/03/07 05:51:17;;;;;;;;;;;;;;;20.47;46.72;98895.50;4952474;28;4228;-63
2023/03/07 05:53:45;;;;;;;;;;;;;;;20.47;46.79;98899.06;4947316;28;6248;-63
2023/03/07 05:56:12;;;;;;;;;;;;;;;20.48;46.77;98891.91;4947238;28;5226;-63
2023/03/07 05:58:38;;;;;;;;;;;;;;;20.47;46.83;98901.22;4944062;28;4142;-63
2023/03/07 06:01:05;;;;;;;;;;;;;;;20.49;46.85;98881.16;4945126;28;4060;-64
2023/03/07 06:03:32;;;;;;;;;;;;;;;20.49;46.74;98881.16;4937388;28;5294;-64
2023/03/07 06:05:58;;;;;;;;;;;;;;;20.49;46.59;98886.91;4951957;28;4165;-63
2023/03/07 06:08:24;;;;;;;;;;;;;;;20.49;46.56;98887.63;4955103;28;4165;-63
2023/03/07 06:10:51;;;;;;;;;;;;;;;20.58;46.64;98887.78;4953428;28;5319;-63
2023/03/07 06:13:19;;;;;;;;;;;;;;;20.61;46.88;98884.22;4957351;28;4213;-63
2023/03/07 06:15:47;;;;;;;;;;;;;;;20.62;47.47;98882.09;4948320;28;5364;-62
2023/03/07 06:18:13;;;;;;;;;;;;;;;20.63;47.19;98890.00;4928409;28;4580;-63
2023/03/07 06:20:40;;;;;;;;;;;;;;;20.76;48.61;98882.28;4936277;28;5610;-63
2023/03/07 06:23:07;;;;;;;;;;;;;;;20.77;47.71;98883.72;4935546;28;4700;-67
2023/03/07 06:25:33;;;;;;;;;;;;;;;20.76;48.34;98887.31;4929793;28;5007;-63
2023/03/07 06:28:00;;;;;;;;;;;;;;;20.65;48.38;98875.66;4945504;28;4281;-62
2023/03/07 06:30:28;;;;;;;;;;;;;;;20.61;48.21;98874.88;4941460;28;4148;-62
2023/03/07 06:32:55;;;;;;;;;;;;;;;20.58;48.59;98887.78;4939543;28;4202;-63
2023/03/07 06:35:21;;;;;;;;;;;;;;;20.56;48.56;98874.06;4951032;28;4380;-62
2023/03/07 06:37:49;;;;;;;;;;;;;;;20.57;48.86;98886.31;4954314;28;4239;-62
2023/03/07 06:40:16;;;;;;;;;;;;;;;20.57;49.12;98884.19;4945697;28;4056;-62
2023/03/07 06:42:43;;;;;;;;;;;;;;;20.56;49.17;98884.84;4957089;28;4226;-62
2023/03/07 06:45:10;;;;;;;;;;;;;;;20.55;49.30;98877.63;4936943;28;4158;-63
2023/03/07 06:47:37;;;;;;;;;;;;;;;20.54;48.96;98893.44;4939230;28;4221;-62
2023/03/07 06:50:05;;;;;;;;;;;;;;;20.56;48.69;98890.59;4946951;28;5268;-62
2023/03/07 06:52:33;;;;;;;;;;;;;;;20.56;49.28;98907.84;4934944;28;4329;-74
2023/03/07 06:55:24;;;;;;;;;;;;;;;20.44;49.17;98900.47;4928405;28;5523;-63
2023/03/07 06:57:51;;;;;;;;;;;;;;;20.45;49.18;98890.41;4946116;28;5256;-63
2023/03/07 07:00:18;;;;;;;;;;;;;;;20.55;48.43;98906.38;4944823;28;4560;-62
2023/03/07 07:02:44;;;;;;;;;;;;;;;20.88;50.95;98890.31;4933943;28;4215;-61
2023/03/07 07:05:11;;;;;;;;;;;;;;;21.00;50.73;98889.75;4943776;28;4247;-62
2023/03/07 07:07:38;;;;;;;;;;;;;;;21.08;50.07;98889.84;4939780;28;4124;-61
2023/03/07 07:10:04;;;;;;;;;;;;;;;21.11;49.06;98888.44;4955882;28;4098;-62
2023/03/07 07:12:31;;;;;;;;;;;;;;;21.23;49.49;98888.59;4946334;28;5241;-61
2023/03/07 07:15:00;;;;;;;;;;;;;;;21.31;48.78;98877.16;4946024;28;4064;-61
2023/03/07 07:17:27;;;;;;;;;;;;;;;21.34;48.45;98887.28;4959118;28;4185;-61
2023/03/07 07:19:54;;;;;;;;;;;;;;;21.32;47.89;98887.25;4942329;28;4126;-61
2023/03/07 07:22:20;;;;;;;;;;;;;;;21.38;47.68;98875.09;4954887;28;4118;-61
2023/03/07 07:24:48;;;;;;;;;;;;;;;21.41;47.40;98872.97;4939890;28;4153;-61
2023/03/07 07:27:14;;;;;;;;;;;;;;;21.41;47.11;98875.84;4938517;28;4155;-62
2023/03/07 07:29:41;;;;;;;;;;;;;;;21.39;46.83;98873.66;4942468;28;6518;-62
2023/03/07 07:32:08;;;;;;;;;;;;;;;21.40;46.50;98872.25;4952393;28;4134;-62
2023/03/07 07:34:35;;;;;;;;;;;;;;;21.46;46.28;98871.59;4957868;28;4242;-62
2023/03/07 07:37:01;;;;;;;;;;;;;;;21.49;46.33;98873.78;4948318;28;4191;-61
2023/03/07 07:39:27;;;;;;;;;;;;;;;21.47;46.33;98873.03;4944695;28;5476;-61
2023/03/07 07:41:54;;;;;;;;;;;;;;;21.48;46.33;98871.59;4942067;28;5295;-60
2023/03/07 07:44:23;;;;;;;;;;;;;;;21.47;46.26;98875.94;4954426;28;4184;-61
2023/03/07 07:46:56;;;;;;;;;;;;;;;21.51;46.06;98875.97;4960326;28;6844;-62
2023/03/07 07:49:23;;;;;;;;;;;;;;;21.58;45.78;98874.59;4961334;28;4160;-64
2023/03/07 07:51:49;;;;;;;;;;;;;;;21.29;45.31;98877.16;4954890;28;4568;-63
2023/03/07 07:54:15;;;;;;;;;;;;;;;21.12;45.62;98872.66;4937203;28;4234;-65
2023/03/07 07:56:42;;;;;;;;;;;;;;;21.14;46.12;98875.53;4938067;28;5490;-62
2023/03/07 07:59:09;;;;;;;;;;;;;;;21.32;45.97;98875.00;4938142;28;4221;-63
2023/03/07 08:01:36;;;;;;;;;;;;;;;21.36;45.35;98872.19;4947231;28;4310;-62
2023/03/07 08:04:02;;;;;;;;;;;;;;;21.51;45.29;98870.22;4956725;28;4975;-62
2023/03/07 08:06:29;;;;;;;;;;;;;;;21.50;45.17;98875.22;4957389;28;4280;-62
2023/03/07 08:08:56;;;;;;;;;;;;;;;21.49;45.22;98873.06;4957842;28;4041;-63
2023/03/07 08:11:22;;;;;;;;;;;;;;;21.56;44.93;98873.84;4958029;28;4048;-62
2023/03/07 08:13:48;;;;;;;;;;;;;;;21.50;44.83;98874.50;4957000;28;4165;-64
2023/03/07 08:16:15;;;;;;;;;;;;;;;21.54;44.94;98874.56;4959820;28;4474;-65
2023/03/07 08:18:43;;;;;;;;;;;;;;;21.51;44.92;98878.84;4957776;28;4482;-61
2023/03/07 08:21:09;;;;;;;;;;;;;;;21.43;44.99;98876.59;4956852;28;4144;-61
2023/03/07 08:23:36;;;;;;;;;;;;;;;21.40;45.12;98871.50;4958492;28;4152;-61
2023/03/07 08:26:03;;;;;;;;;;;;;;;21.39;45.17;98875.81;4957077;28;4376;-63
2023/03/07 08:28:31;;;;;;;;;;;;;;;21.47;45.88;98875.94;4952564;28;4044;-62
2023/03/07 08:30:57;;;;;;;;;;;;;;;21.33;45.97;98868.56;4954359;28;4201;-62
2023/03/07 08:33:24;;;;;;;;;;;;;;;21.22;46.49;98874.91;4958344;28;4263;-61
2023/03/07 08:35:50;;;;;;;;;;;;;;;21.32;46.46;98875.72;4959673;28;4249;-62
2023/03/07 08:38:16;;;;;;;;;;;;;;;21.32;46.62;98872.13;4956602;28;4420;-61
2023/03/07 08:40:43;;;;;;;;;;;;;;;21.49;46.60;98875.94;4958813;28;4137;-66
2023/03/07 08:43:09;;;;;;;;;;;;;;;21.33;46.39;98867.84;4958845;28;4179;-64
2023/03/07 08:45:38;;;;;;;;;;;;;;;21.36;46.78;98868.59;4958138;28;4190;-62
2023/03/07 08:48:05;;;;;;;;;;;;;;;21.48;46.41;98871.59;4959120;28;4151;-62
2023/03/07 08:50:31;;;;;;;;;;;;;;;21.48;46.59;98871.59;4958244;28;4066;-63
2023/03/07 08:52:57;;;;;;;;;;;;;;;21.53;46.05;98873.84;4958027;28;4169;-62
2023/03/07 08:55:24;;;;;;;;;;;;;;;21.56;46.06;98877.47;4949050;28;5270;-63
2023/03/07 08:57:50;;;;;;;;;;;;;;;21.49;46.21;98888.19;4956700;28;5391;-63
2023/03/07 09:00:16;;;;;;;;;;;;;;;21.48;46.17;98877.38;4959320;28;4279;-62
2023/03/07 09:02:43;;;;;;;;;;;;;;;21.54;46.37;98886.78;4955503;28;5229;-61
2023/03/07 09:05:09;;;;;;;;;;;;;;;21.60;46.14;98877.50;4941859;28;4256;-61
2023/03/07 09:07:36;;;;;;;;;;;;;;;21.60;46.32;98888.28;4957983;28;5092;-61
2023/03/07 09:10:03;;;;;;;;;;;;;;;21.60;46.26;98886.13;4953900;28;4108;-62
2023/03/07 09:12:29;;;;;;;;;;;;;;;21.54;46.05;98897.59;4955690;28;4105;-63
2023/03/07 09:14:55;;;;;;;;;;;;;;;21.41;46.24;98890.25;4955443;28;5403;-61
2023/03/07 09:17:22;;;;;;;;;;;;;;;21.29;47.01;98891.53;4957450;28;4250;-61
2023/03/07 09:19:49;;;;;;;;;;;;;;;21.26;47.24;98890.06;4955322;28;4540;-61
2023/03/07 09:22:15;;;;;;;;;;;;;;;21.22;47.09;98881.38;4955601;28;4201;-61
2023/03/07 09:24:42;;;;;;;;;;;;;;;21.20;47.10;98883.50;4953807;28;4149;-61
2023/03/07 09:27:10;;;;;;;;;;;;;;;21.19;47.26;98876.28;4955090;28;4276;-61
2023/03/07 09:29:36;;;;;;;;;;;;;;;21.17;46.76;98882.78;4955598;28;4150;-62
2023/03/07 09:32:02;;;;;;;;;;;;;;;21.16;47.10;98874.84;4954939;28;4235;-61
2023/03/07 09:34:29;;;;;;;;;;;;;;;21.16;47.11;98869.06;4955932;28;4244;-61
2023/03/07 09:36:55;;;;;;;;;;;;;;;21.22;46.82;98874.91;4955676;28;4172;-62
2023/03/07 09:39:22;;;;;;;;;;;;;;;21.20;46.93;98878.47;4958415;28;5243;-61
2023/03/07 09:41:58;;;;;;;;;;;;;;;21.16;46.93;98878.44;4957496;28;6274;-62
2023/03/07 09:45:00;;;;;;;;;;;;;;;20.97;46.49;98871.03;4939508;28;4045;-64
2023/03/07 09:47:52;;;;;;;;;;;;;;;21.19;45.52;98874.16;4866705;29;5257;-63
2023/03/07 09:50:37;;;;;;;;;;;;;;;21.24;45.94;98881.41;4957079;28;4089;-63
2023/03/07 09:53:04;;;;;;;;;;;;;;;21.31;45.56;98871.41;4957445;28;4232;-64
2023/03/07 09:55:30;;;;;;;;;;;;;;;21.42;45.68;98865.81;4942958;28;5559;-65
2023/03/07 09:57:57;;;;;;;;;;;;;;;21.47;45.93;98865.13;4961813;28;4462;-62
2023/03/07 10:00:34;;;;;;;;;;;;;;;21.55;45.39;98864.47;4943069;28;4191;-62
2023/03/07 10:03:19;;;;;;;;;;;;;;;21.56;45.26;98871.69;4949677;28;4163;-63
2023/03/07 10:05:49;;;;;;;;;;;;;;;21.62;45.08;98868.84;4949652;28;5241;-65
2023/03/07 10:08:16;;;;;;;;;;;;;;;21.57;45.25;98867.38;4955681;28;4488;-63
2023/03/07 10:10:57;;;;;;;;;;;;;;;21.57;44.93;98873.13;4954783;28;5192;-67
2023/03/07 10:13:28;;;;;;;;;;;;;;;21.75;45.37;98870.44;4945602;28;4203;-76
2023/03/07 10:15:55;;;;;;;;;;;;;;;21.80;45.39;98870.47;4956104;28;4401;-71
2023/03/07 10:18:41;;;;;;;;;;;;;;;21.90;45.82;98877.06;4944323;28;4330;-72
2023/03/07 10:21:13;;;;;;;;;;;;;;;21.92;45.55;98877.06;4960110;28;5494;-73
2023/03/07 10:24:02;;;;;;;;;;;;;;;21.86;45.82;98877.00;4957528;28;4754;-76
2023/03/07 10:26:32;;;;;;;;;;;;;;;21.85;45.96;98884.22;4959226;28;4443;-73
2023/03/07 10:29:00;;;;;;;;;;;;;;;21.85;45.91;98883.47;4959494;28;4119;-75
2023/03/07 10:31:30;;;;;;;;;;;;;;;21.87;45.99;98874.84;4956386;28;4136;-72
2023/03/07 10:33:57;;;;;;;;;;;;;;;21.89;45.54;98880.63;4958356;28;4114;-75
2023/03/07 10:36:32;;;;;;;;;;;;;;;21.91;45.79;98881.38;4959646;28;4410;-74
2023/03/07 10:39:00;;;;;;;;;;;;;;;21.99;45.56;98860.56;4959892;28;4324;-72
2023/03/07 10:41:27;;;;;;;;;;;;;;;22.00;45.76;98876.41;4958128;28;4204;-73
2023/03/07 10:43:53;;;;;;;;;;;;;;;22.03;45.78;98874.97;4955291;28;4134;-78
2023/03/07 10:46:24;;;;;;;;;;;;;;;21.99;45.31;98868.47;4950812;28;5152;-72
2023/03/07 10:49:10;;;;;;;;;;;;;;;22.04;45.40;98869.97;4949227;28;5159;-73
2023/03/07 10:51:49;;;;;;;;;;;;;;;22.05;45.71;98869.22;4945076;28;4132;-73
2023/03/07 10:54:16;;;;;;;;;;;;;;;22.02;45.84;98855.53;4927232;28;5376;-71
2023/03/07 10:57:01;;;;;;;;;;;;;;;22.02;45.77;98856.25;4945043;28;4543;-70
2023/03/07 10:59:27;;;;;;;;;;;;;;;22.02;46.10;98850.50;4959759;28;5178;-79
2023/03/07 11:01:54;;;;;;;;;;;;;;;22.19;46.20;98845.56;4957814;28;4116;-77
2023/03/07 11:04:21;;;;;;;;;;;;;;;22.13;45.66;98839.78;4941037;28;4932;-70
2023/03/07 11:06:54;;;;;;;;;;;;;;;22.08;45.66;98833.25;4955592;28;4783;-72
2023/03/07 11:09:36;;;;;;;;;;;;;;;22.08;45.62;98836.13;4961225;28;4366;-74
2023/03/07 11:12:05;;;;;;;;;;;;;;;22.08;45.69;98830.38;4942188;28;4176;-73
2023/03/07 11:14:50;;;;;;;;;;;;;;;22.13;45.86;98837.59;4962728;28;5384;-71
2023/03/07 11:17:20;;;;;;;;;;;;;;;22.12;45.82;98821.72;4958001;28;4287;-72
2023/03/07 11:19:46;;;;;;;;;;;;;;;22.15;46.22;98820.31;4960201;28;4099;-72
2023/03/07 11:22:32;;;;;;;;;;;;;;;22.24;46.06;98817.50;4957296;28;4087;-74
2023/03/07 11:25:00;;;;;;;;;;;;;;;22.26;45.75;98821.13;4960584;28;6250;-69
2023/03/07 11:27:45;;;;;;;;;;;;;;;22.25;45.71;98816.81;4947942;28;4024;-69
2023/03/07 11:30:15;;;;;;;;;;;;;;;22.24;45.72;98818.25;4957733;28;5377;-70
2023/03/07 11:32:44;;;;;;;;;;;;;;;22.25;45.69;98818.97;4959364;28;4008;-70
2023/03/07 11:35:12;;;;;;;;;;;;;;;22.23;45.98;98816.78;4947465;28;4078;-71
2023/03/07 11:37:47;;;;;;;;;;;;;;;22.22;45.78;98811.72;4947911;28;4133;-72
2023/03/07 11:40:24;;;;;;;;;;;;;;;22.09;45.28;98820.28;4960252;28;4393;-72
2023/03/07 11:43:03;;;;;;;;;;;;;;;22.07;45.52;98810.91;4957962;28;5186;-70
2023/03/07 11:45:35;;;;;;;;;;;;;;;22.16;45.82;98813.13;4959097;28;3947;-68
2023/03/07 11:48:16;;;;;;;;;;;;;;;22.17;45.94;98803.03;4944287;28;4128;-69
2023/03/07 11:50:45;;;;;;;;;;;;;;;22.18;45.54;98807.38;4956265;28;5148;-70
2023/03/07 11:53:29;;;;;;;;;;;;;;;22.17;45.92;98813.84;4941946;28;5255;-69
2023/03/07 11:55:58;;;;;;;;;;;;;;;22.14;45.66;98818.16;4942163;28;5243;-71
2023/03/07 11:58:27;;;;;;;;;;;;;;;22.15;46.48;98816.69;4959465;28;4201;-70
2023/03/07 12:01:12;;;;;;;;;;;;;;;22.17;46.06;98813.84;4958871;28;4106;-69
2023/03/07 12:03:57;;;;;;;;;;;;;;;22.14;45.77;98812.38;4958971;28;3971;-71
2023/03/07 12:06:25;;;;;;;;;;;;;;;22.14;45.99;98815.25;4946344;28;4043;-69
2023/03/07 12:09:10;;;;;;;;;;;;;;;22.13;46.17;98819.59;4946620;28;4449;-72
2023/03/07 12:11:42;;;;;;;;;;;;;;;21.88;44.83;98807.16;4958268;28;4887;-67
2023/03/07 12:14:09;;;;;;;;;;;;;;;21.70;45.68;98810.63;4957590;28;4443;-69
2023/03/07 12:16:54;;;;;;;;;;;;;;;22.05;46.08;98820.25;4959114;28;4251;-65
2023/03/07 12:19:24;;;;;;;;;;;;;;;22.26;46.06;98815.34;4959309;28;4130;-69
2023/03/07 12:21:57;;;;;;;;;;;;;;;22.41;45.95;98818.34;4947366;28;4512;-70
2023/03/07 12:24:27;;;;;;;;;;;;;;;22.49;45.58;98819.09;4947332;28;4170;-69
2023/03/07 12:26:58;;;;;;;;;;;;;;;22.55;45.41;98815.53;4957937;28;4121;-69
2023/03/07 12:29:35;;;;;;;;;;;;;;;22.58;45.25;98814.81;4959281;28;4134;-68
2023/03/07 12:32:10;;;;;;;;;;;;;;;22.50;45.44;98814.78;4946344;28;5316;-70
2023/03/07 12:34:38;;;;;;;;;;;;;;;22.50;45.24;98814.06;4943839;28;4160;-70
2023/03/07 12:37:05;;;;;;;;;;;;;;;22.48;45.64;98820.53;4957266;28;4016;-68
2023/03/07 12:39:34;;;;;;;;;;;;;;;22.46;45.90;98820.53;4944285;28;4148;-69
2023/03/07 12:42:09;;;;;;;;;;;;;;;22.47;45.96;98816.22;4959176;28;4319;-71
2023/03/07 12:44:42;;;;;;;;;;;;;;;22.59;45.53;98810.50;4944346;28;4126;-72
2023/03/07 12:47:22;;;;;;;;;;;;;;;22.72;45.71;98810.53;4938691;28;4107;-71
2023/03/07 12:49:52;;;;;;;;;;;;;;;22.56;44.99;98823.47;4942824;28;4071;-67
2023/03/07 12:52:21;;;;;;;;;;;;;;;22.51;45.43;98824.88;4954364;28;4222;-69
2023/03/07 12:54:51;;;;;;;;;;;;;;;22.49;45.89;98827.03;4959417;28;5288;-66
2023/03/07 12:57:18;;;;;;;;;;;;;;;22.49;45.70;98827.75;4945102;28;4292;-66
2023/03/07 12:59:45;;;;;;;;;;;;;;;22.51;45.77;98824.88;4959469;28;4164;-71
2023/03/07 13:02:15;;;;;;;;;;;;;;;22.56;45.80;98832.13;4958113;28;4261;-67
2023/03/07 13:04:42;;;;;;;;;;;;;;;22.58;45.74;98837.88;4944299;28;4141;-70
2023/03/07 13:07:09;;;;;;;;;;;;;;;22.59;45.78;98829.97;4957484;28;4413;-68